sensor_id;sensor_type;location;lat;lon;timestamp;pressure;altitude;pressure_sealevel;temperature;humidity
84022;BME280;74108;48.636;9.492;2024-03-22T00:01:39;98505.31;;;8.59;77.46
84022;BME280;74108;48.636;9.492;2024-03-22T00:04:04;98510.19;;;8.56;79.73
84022;BME280;74108;48.636;9.492;2024-03-22T00:06:30;98509.13;;;8.63;80.22
84022;BME280;74108;48.636;9.492;2024-03-22T00:08:55;98509.63;;;8.72;79.17
84022;BME280;74108;48.636;9.492;2024-03-22T00:11:20;98501.41;;;8.68;78.71
84022;BME280;74108;48.636;9.492;2024-03-22T00:13:46;98503.28;;;8.61;77.21
84022;BME280;74108;48.636;9.492;2024-03-22T00:16:11;98500.09;;;8.59;77.22
84022;BME280;74108;48.636;9.492;2024-03-22T00:18:36;98494.88;;;8.59;77.08
84022;BME280;74108;48.636;9.492;2024-03-22T00:21:02;98497.78;;;8.51;77.68
84022;BME280;74108;48.636;9.492;2024-03-22T00:23:27;98490.78;;;8.45;76.01
84022;BME280;74108;48.636;9.492;2024-03-22T00:25:54;98476.22;;;8.37;76.51
84022;BME280;74108;48.636;9.492;2024-03-22T00:28:19;98478.44;;;8.34;77.63
84022;BME280;74108;48.636;9.492;2024-03-22T00:30:45;98477.63;;;8.33;77.42
84022;BME280;74108;48.636;9.492;2024-03-22T00:33:10;98484.88;;;8.31;77.28
84022;BME280;74108;48.636;9.492;2024-03-22T00:35:35;98481.69;;;8.29;76.84
84022;BME280;74108;48.636;9.492;2024-03-22T00:38:01;98476.00;;;8.14;79.79
84022;BME280;74108;48.636;9.492;2024-03-22T00:40:27;98490.97;;;8.01;82.17
84022;BME280;74108;48.636;9.492;2024-03-22T00:42:52;98491.25;;;8.11;81.11
84022;BME280;74108;48.636;9.492;2024-03-22T00:45:17;98482.59;;;8.17;81.44
84022;BME280;74108;48.636;9.492;2024-03-22T00:47:43;98479.66;;;8.07;80.29
84022;BME280;74108;48.636;9.492;2024-03-22T00:50:08;98486.78;;;8.18;79.00
84022;BME280;74108;48.636;9.492;2024-03-22T00:52:34;98478.38;;;8.16;77.24
84022;BME280;74108;48.636;9.492;2024-03-22T00:54:59;98473.78;;;8.11;76.52
84022;BME280;74108;48.636;9.492;2024-03-22T00:57:24;98472.69;;;8.01;76.31
84022;BME280;74108;48.636;9.492;2024-03-22T00:59:50;98462.09;;;7.96;76.15
84022;BME280;74108;48.636;9.492;2024-03-22T01:02:15;98456.13;;;7.89;77.88
84022;BME280;74108;48.636;9.492;2024-03-22T01:04:41;98453.41;;;7.77;78.65
84022;BME280;74108;48.636;9.492;2024-03-22T01:07:06;98457.88;;;7.39;76.64
84022;BME280;74108;48.636;9.492;2024-03-22T01:09:31;98462.50;;;7.30;77.75
84022;BME280;74108;48.636;9.492;2024-03-22T01:11:57;98442.63;;;7.36;78.98
84022;BME280;74108;48.636;9.492;2024-03-22T01:14:22;98447.03;;;7.35;78.93
84022;BME280;74108;48.636;9.492;2024-03-22T01:16:47;98444.97;;;7.44;78.25
84022;BME280;74108;48.636;9.492;2024-03-22T01:19:13;98440.38;;;7.46;79.49
84022;BME280;74108;48.636;9.492;2024-03-22T01:21:38;98436.97;;;7.45;79.23
84022;BME280;74108;48.636;9.492;2024-03-22T01:24:03;98429.38;;;7.37;77.47
84022;BME280;74108;48.636;9.492;2024-03-22T01:26:29;98424.03;;;7.26;78.08
84022;BME280;74108;48.636;9.492;2024-03-22T01:28:54;98420.66;;;7.25;78.56
84022;BME280;74108;48.636;9.492;2024-03-22T01:31:19;98420.31;;;7.15;79.60
84022;BME280;74108;48.636;9.492;2024-03-22T01:33:45;98419.13;;;7.11;79.21
84022;BME280;74108;48.636;9.492;2024-03-22T01:36:10;98415.94;;;7.09;79.18
84022;BME280;74108;48.636;9.492;2024-03-22T01:38:35;98415.75;;;7.04;78.88
84022;BME280;74108;48.636;9.492;2024-03-22T01:41:02;98419.13;;;7.04;80.22
84022;BME280;74108;48.636;9.492;2024-03-22T01:43:27;98420.16;;;7.03;80.05
84022;BME280;74108;48.636;9.492;2024-03-22T01:45:53;98427.13;;;7.09;81.19
84022;BME280;74108;48.636;9.492;2024-03-22T01:48:18;98426.03;;;6.92;77.30
84022;BME280;74108;48.636;9.492;2024-03-22T01:50:44;98423.13;;;6.69;78.56
84022;BME280;74108;48.636;9.492;2024-03-22T01:53:10;98412.09;;;6.74;80.03
84022;BME280;74108;48.636;9.492;2024-03-22T01:55:35;98407.69;;;6.68;79.87
84022;BME280;74108;48.636;9.492;2024-03-22T01:58:01;98403.72;;;6.59;81.53
84022;BME280;74108;48.636;9.492;2024-03-22T02:00:26;98408.69;;;6.67;81.85
84022;BME280;74108;48.636;9.492;2024-03-22T02:02:51;98400.25;;;6.78;82.20
84022;BME280;74108;48.636;9.492;2024-03-22T02:05:18;98393.81;;;6.80;82.61
84022;BME280;74108;48.636;9.492;2024-03-22T02:07:47;98401.78;;;6.92;81.73
84022;BME280;74108;48.636;9.492;2024-03-22T02:10:13;98406.63;;;6.82;79.96
84022;BME280;74108;48.636;9.492;2024-03-22T02:12:39;98403.03;;;6.83;80.63
84022;BME280;74108;48.636;9.492;2024-03-22T02:15:05;98397.56;;;6.91;80.62
84022;BME280;74108;48.636;9.492;2024-03-22T02:17:32;98391.59;;;6.90;80.75
84022;BME280;74108;48.636;9.492;2024-03-22T02:19:59;98386.38;;;6.90;81.86
84022;BME280;74108;48.636;9.492;2024-03-22T02:22:25;98383.97;;;6.89;81.98
84022;BME280;74108;48.636;9.492;2024-03-22T02:24:51;98382.38;;;6.88;80.76
84022;BME280;74108;48.636;9.492;2024-03-22T02:27:16;98380.94;;;6.92;80.55
84022;BME280;74108;48.636;9.492;2024-03-22T02:29:41;98376.41;;;6.81;79.96
84022;BME280;74108;48.636;9.492;2024-03-22T02:32:08;98379.19;;;6.86;79.41
84022;BME280;74108;48.636;9.492;2024-03-22T02:34:33;98370.84;;;6.64;77.34
84022;BME280;74108;48.636;9.492;2024-03-22T02:36:58;98370.78;;;6.33;78.23
84022;BME280;74108;48.636;9.492;2024-03-22T02:39:24;98368.97;;;6.33;78.83
84022;BME280;74108;48.636;9.492;2024-03-22T02:41:50;98376.53;;;6.48;80.10
84022;BME280;74108;48.636;9.492;2024-03-22T02:44:16;98360.50;;;6.51;80.67
84022;BME280;74108;48.636;9.492;2024-03-22T02:46:41;98365.25;;;6.67;82.62
84022;BME280;74108;48.636;9.492;2024-03-22T02:49:06;98367.41;;;6.77;80.98
84022;BME280;74108;48.636;9.492;2024-03-22T02:51:32;98363.13;;;6.89;81.58
84022;BME280;74108;48.636;9.492;2024-03-22T02:53:57;98356.69;;;6.91;79.69
84022;BME280;74108;48.636;9.492;2024-03-22T02:56:23;98362.94;;;6.84;78.22
84022;BME280;74108;48.636;9.492;2024-03-22T02:58:51;98356.78;;;6.78;78.80
84022;BME280;74108;48.636;9.492;2024-03-22T03:01:16;98364.81;;;6.77;79.13
84022;BME280;74108;48.636;9.492;2024-03-22T03:03:42;98362.69;;;6.61;79.23
84022;BME280;74108;48.636;9.492;2024-03-22T03:06:07;98363.31;;;6.50;80.96
84022;BME280;74108;48.636;9.492;2024-03-22T03:08:33;98361.13;;;6.47;81.78
84022;BME280;74108;48.636;9.492;2024-03-22T03:10:59;98361.50;;;6.50;81.55
84022;BME280;74108;48.636;9.492;2024-03-22T03:13:24;98353.88;;;6.55;82.25
84022;BME280;74108;48.636;9.492;2024-03-22T03:15:53;98353.66;;;6.57;80.29
84022;BME280;74108;48.636;9.492;2024-03-22T03:18:19;98348.41;;;6.63;77.58
84022;BME280;74108;48.636;9.492;2024-03-22T03:20:44;98345.84;;;6.57;79.12
84022;BME280;74108;48.636;9.492;2024-03-22T03:23:09;98345.06;;;6.50;78.69
84022;BME280;74108;48.636;9.492;2024-03-22T03:25:35;98343.53;;;6.42;77.53
84022;BME280;74108;48.636;9.492;2024-03-22T03:28:00;98334.09;;;6.41;78.03
84022;BME280;74108;48.636;9.492;2024-03-22T03:30:25;98340.94;;;6.42;78.76
84022;BME280;74108;48.636;9.492;2024-03-22T03:32:51;98340.94;;;6.35;79.03
84022;BME280;74108;48.636;9.492;2024-03-22T03:35:16;98336.34;;;6.31;79.04
84022;BME280;74108;48.636;9.492;2024-03-22T03:37:41;98344.63;;;6.08;78.49
84022;BME280;74108;48.636;9.492;2024-03-22T03:40:08;98339.84;;;5.92;79.03
84022;BME280;74108;48.636;9.492;2024-03-22T03:42:33;98332.03;;;5.99;80.37
84022;BME280;74108;48.636;9.492;2024-03-22T03:44:58;98329.63;;;6.04;80.15
84022;BME280;74108;48.636;9.492;2024-03-22T03:47:24;98328.66;;;5.98;80.72
84022;BME280;74108;48.636;9.492;2024-03-22T03:49:49;98332.25;;;5.97;81.69
84022;BME280;74108;48.636;9.492;2024-03-22T03:52:14;98327.84;;;5.98;81.44
84022;BME280;74108;48.636;9.492;2024-03-22T03:54:40;98328.81;;;6.10;80.62
84022;BME280;74108;48.636;9.492;2024-03-22T03:57:05;98324.63;;;6.09;81.08
84022;BME280;74108;48.636;9.492;2024-03-22T03:59:31;98323.44;;;6.05;80.39
84022;BME280;74108;48.636;9.492;2024-03-22T04:01:56;98323.84;;;5.95;77.12
84022;BME280;74108;48.636;9.492;2024-03-22T04:04:21;98326.47;;;5.89;77.76
84022;BME280;74108;48.636;9.492;2024-03-22T04:06:47;98331.06;;;5.93;78.65
84022;BME280;74108;48.636;9.492;2024-03-22T04:09:12;98333.44;;;5.95;79.09
84022;BME280;74108;48.636;9.492;2024-03-22T04:11:38;98332.88;;;5.86;80.04
84022;BME280;74108;48.636;9.492;2024-03-22T04:14:07;98332.88;;;5.86;80.62
84022;BME280;74108;48.636;9.492;2024-03-22T04:16:32;98332.66;;;5.81;80.82
84022;BME280;74108;48.636;9.492;2024-03-22T04:18:57;98330.66;;;5.77;82.03
84022;BME280;74108;48.636;9.492;2024-03-22T04:21:23;98333.09;;;5.85;82.17
84022;BME280;74108;48.636;9.492;2024-03-22T04:23:48;98335.44;;;5.93;81.35
84022;BME280;74108;48.636;9.492;2024-03-22T04:26:15;98335.25;;;5.81;81.43
84022;BME280;74108;48.636;9.492;2024-03-22T04:28:40;98340.47;;;5.68;79.31
84022;BME280;74108;48.636;9.492;2024-03-22T04:31:07;98337.47;;;5.38;80.97
84022;BME280;74108;48.636;9.492;2024-03-22T04:33:36;98338.88;;;5.47;83.07
84022;BME280;74108;48.636;9.492;2024-03-22T04:36:02;98344.25;;;5.46;83.78
84022;BME280;74108;48.636;9.492;2024-03-22T04:38:29;98341.66;;;5.46;84.81
84022;BME280;74108;48.636;9.492;2024-03-22T04:40:55;98342.66;;;5.58;84.55
84022;BME280;74108;48.636;9.492;2024-03-22T04:43:22;98342.44;;;5.59;84.46
84022;BME280;74108;48.636;9.492;2024-03-22T04:45:48;98345.47;;;5.56;84.32
84022;BME280;74108;48.636;9.492;2024-03-22T04:48:16;98337.09;;;5.54;83.52
84022;BME280;74108;48.636;9.492;2024-03-22T04:50:42;98345.06;;;5.59;83.33
84022;BME280;74108;48.636;9.492;2024-03-22T04:53:07;98346.66;;;5.54;84.95
84022;BME280;74108;48.636;9.492;2024-03-22T04:55:32;98351.06;;;5.53;84.74
84022;BME280;74108;48.636;9.492;2024-03-22T04:57:58;98351.88;;;5.54;85.19
84022;BME280;74108;48.636;9.492;2024-03-22T05:00:24;98349.84;;;5.76;84.18
84022;BME280;74108;48.636;9.492;2024-03-22T05:02:51;98347.44;;;5.87;82.38
84022;BME280;74108;48.636;9.492;2024-03-22T05:05:16;98349.84;;;5.95;81.62
84022;BME280;74108;48.636;9.492;2024-03-22T05:07:41;98354.06;;;5.90;81.97
84022;BME280;74108;48.636;9.492;2024-03-22T05:10:07;98348.88;;;5.96;81.58
84022;BME280;74108;48.636;9.492;2024-03-22T05:12:34;98355.44;;;5.99;81.20
84022;BME280;74108;48.636;9.492;2024-03-22T05:14:59;98352.03;;;6.05;81.79
84022;BME280;74108;48.636;9.492;2024-03-22T05:17:24;98343.66;;;6.03;79.80
84022;BME280;74108;48.636;9.492;2024-03-22T05:19:50;98347.03;;;6.10;80.79
84022;BME280;74108;48.636;9.492;2024-03-22T05:22:15;98337.22;;;5.99;80.56
84022;BME280;74108;48.636;9.492;2024-03-22T05:24:41;98341.44;;;6.00;80.71
84022;BME280;74108;48.636;9.492;2024-03-22T05:27:06;98340.84;;;6.04;80.15
84022;BME280;74108;48.636;9.492;2024-03-22T05:29:31;98335.63;;;6.04;80.34
84022;BME280;74108;48.636;9.492;2024-03-22T05:31:57;98332.22;;;6.04;80.32
84022;BME280;74108;48.636;9.492;2024-03-22T05:34:22;98329.44;;;6.05;79.33
84022;BME280;74108;48.636;9.492;2024-03-22T05:36:48;98325.22;;;6.04;80.78
84022;BME280;74108;48.636;9.492;2024-03-22T05:39:14;98322.81;;;6.09;81.74
84022;BME280;74108;48.636;9.492;2024-03-22T05:41:40;98313.16;;;6.23;80.11
84022;BME280;74108;48.636;9.492;2024-03-22T05:44:05;98319.94;;;6.30;79.57
84022;BME280;74108;48.636;9.492;2024-03-22T05:46:31;98314.91;;;6.35;80.45
84022;BME280;74108;48.636;9.492;2024-03-22T05:48:57;98312.44;;;6.47;79.77
84022;BME280;74108;48.636;9.492;2024-03-22T05:51:24;98323.44;;;6.56;79.01
84022;BME280;74108;48.636;9.492;2024-03-22T05:53:49;98317.78;;;6.65;77.69
84022;BME280;74108;48.636;9.492;2024-03-22T05:56:15;98315.81;;;6.61;78.71
84022;BME280;74108;48.636;9.492;2024-03-22T05:58:40;98310.31;;;6.75;78.44
84022;BME280;74108;48.636;9.492;2024-03-22T06:01:06;98308.91;;;6.73;79.27
84022;BME280;74108;48.636;9.492;2024-03-22T06:03:31;98298.28;;;6.81;78.76
84022;BME280;74108;48.636;9.492;2024-03-22T06:05:59;98301.38;;;6.96;78.68
84022;BME280;74108;48.636;9.492;2024-03-22T06:08:28;98296.09;;;7.09;78.26
84022;BME280;74108;48.636;9.492;2024-03-22T06:10:54;98296.09;;;7.09;78.48
84022;BME280;74108;48.636;9.492;2024-03-22T06:13:30;98304.84;;;7.15;78.69
84022;BME280;74108;48.636;9.492;2024-03-22T06:15:57;98293.44;;;7.16;78.74
84022;BME280;74108;48.636;9.492;2024-03-22T06:18:22;98283.69;;;7.29;77.83
84022;BME280;74108;48.636;9.492;2024-03-22T06:20:48;98281.91;;;7.30;78.22
84022;BME280;74108;48.636;9.492;2024-03-22T06:23:13;98278.19;;;7.37;77.94
84022;BME280;74108;48.636;9.492;2024-03-22T06:25:39;98280.97;;;7.42;78.08
84022;BME280;74108;48.636;9.492;2024-03-22T06:28:04;98277.06;;;7.51;77.79
84022;BME280;74108;48.636;9.492;2024-03-22T06:30:30;98276.66;;;7.54;78.15
84022;BME280;74108;48.636;9.492;2024-03-22T06:32:55;98275.03;;;7.53;78.40
84022;BME280;74108;48.636;9.492;2024-03-22T06:35:21;98275.19;;;7.58;78.08
84022;BME280;74108;48.636;9.492;2024-03-22T06:37:47;98265.84;;;7.69;78.43
84022;BME280;74108;48.636;9.492;2024-03-22T06:40:14;98270.47;;;7.92;78.38
84022;BME280;74108;48.636;9.492;2024-03-22T06:42:39;98275.50;;;8.23;77.16
84022;BME280;74108;48.636;9.492;2024-03-22T06:45:06;98268.91;;;8.68;75.69
84022;BME280;74108;48.636;9.492;2024-03-22T06:47:34;98264.81;;;9.02;74.55
84022;BME280;74108;48.636;9.492;2024-03-22T06:50:00;98273.50;;;9.49;73.03
84022;BME280;74108;48.636;9.492;2024-03-22T06:52:25;98269.41;;;9.87;72.08
84022;BME280;74108;48.636;9.492;2024-03-22T06:54:51;98267.31;;;10.13;71.50
84022;BME280;74108;48.636;9.492;2024-03-22T06:57:17;98263.34;;;10.67;68.92
84022;BME280;74108;48.636;9.492;2024-03-22T06:59:42;98257.06;;;10.96;68.69
84022;BME280;74108;48.636;9.492;2024-03-22T07:02:08;98258.72;;;11.35;67.65
84022;BME280;74108;48.636;9.492;2024-03-22T07:04:34;98265.88;;;11.56;67.40
84022;BME280;74108;48.636;9.492;2024-03-22T07:07:00;98265.31;;;11.71;66.56
84022;BME280;74108;48.636;9.492;2024-03-22T07:09:25;98259.72;;;11.84;66.55
84022;BME280;74108;48.636;9.492;2024-03-22T07:11:53;98257.31;;;11.99;67.01
84022;BME280;74108;48.636;9.492;2024-03-22T07:14:18;98255.66;;;12.15;66.03
84022;BME280;74108;48.636;9.492;2024-03-22T07:16:44;98254.53;;;12.32;66.16
84022;BME280;74108;48.636;9.492;2024-03-22T07:19:09;98256.59;;;12.79;65.57
84022;BME280;74108;48.636;9.492;2024-03-22T07:21:34;98248.94;;;13.04;64.97
84022;BME280;74108;48.636;9.492;2024-03-22T07:24:00;98238.56;;;13.61;63.56
84022;BME280;74108;48.636;9.492;2024-03-22T07:26:25;98241.25;;;14.28;61.74
84022;BME280;74108;48.636;9.492;2024-03-22T07:28:51;98240.63;;;14.72;59.74
84022;BME280;74108;48.636;9.492;2024-03-22T07:31:16;98233.47;;;15.38;57.14
84022;BME280;74108;48.636;9.492;2024-03-22T07:33:41;98236.34;;;15.82;55.79
84022;BME280;74108;48.636;9.492;2024-03-22T07:36:07;98230.88;;;16.28;53.19
84022;BME280;74108;48.636;9.492;2024-03-22T07:38:32;98227.34;;;16.42;53.00
84022;BME280;74108;48.636;9.492;2024-03-22T07:40:58;98225.53;;;16.87;51.43
84022;BME280;74108;48.636;9.492;2024-03-22T07:43:23;98224.09;;;16.99;51.70
84022;BME280;74108;48.636;9.492;2024-03-22T07:45:48;98224.13;;;17.28;49.80
84022;BME280;74108;48.636;9.492;2024-03-22T07:48:15;98226.47;;;17.63;49.21
84022;BME280;74108;48.636;9.492;2024-03-22T07:50:41;98224.59;;;17.87;48.99
84022;BME280;74108;48.636;9.492;2024-03-22T07:53:06;98211.63;;;18.28;47.33
84022;BME280;74108;48.636;9.492;2024-03-22T07:55:31;98215.03;;;18.10;48.07
84022;BME280;74108;48.636;9.492;2024-03-22T07:57:57;98204.06;;;17.74;49.15
84022;BME280;74108;48.636;9.492;2024-03-22T08:00:23;98214.63;;;17.56;49.97
84022;BME280;74108;48.636;9.492;2024-03-22T08:02:51;98214.03;;;17.30;49.83
84022;BME280;74108;48.636;9.492;2024-03-22T08:05:16;98213.66;;;17.41;50.63
84022;BME280;74108;48.636;9.492;2024-03-22T08:07:41;98203.47;;;17.25;50.93
84022;BME280;74108;48.636;9.492;2024-03-22T08:10:08;98203.63;;;17.10;50.90
84022;BME280;74108;48.636;9.492;2024-03-22T08:12:34;98207.22;;;16.90;51.51
84022;BME280;74108;48.636;9.492;2024-03-22T08:14:59;98214.47;;;16.74;51.69
84022;BME280;74108;48.636;9.492;2024-03-22T08:17:24;98211.50;;;16.81;52.40
84022;BME280;74108;48.636;9.492;2024-03-22T08:19:50;98206.78;;;17.12;51.76
84022;BME280;74108;48.636;9.492;2024-03-22T08:22:15;98201.66;;;17.49;51.38
84022;BME280;74108;48.636;9.492;2024-03-22T08:24:41;98199.22;;;17.58;51.51
84022;BME280;74108;48.636;9.492;2024-03-22T08:27:06;98199.63;;;17.41;50.75
84022;BME280;74108;48.636;9.492;2024-03-22T08:29:32;98198.19;;;17.25;51.15
84022;BME280;74108;48.636;9.492;2024-03-22T08:31:57;98202.38;;;17.60;51.10
84022;BME280;74108;48.636;9.492;2024-03-22T08:34:22;98201.25;;;17.66;51.44
84022;BME280;74108;48.636;9.492;2024-03-22T08:36:48;98193.53;;;17.69;50.21
84022;BME280;74108;48.636;9.492;2024-03-22T08:39:13;98197.75;;;17.94;49.56
84022;BME280;74108;48.636;9.492;2024-03-22T08:41:38;98200.44;;;18.12;50.15
84022;BME280;74108;48.636;9.492;2024-03-22T08:44:04;98191.53;;;18.22;50.64
84022;BME280;74108;48.636;9.492;2024-03-22T08:46:29;98189.03;;;18.31;48.96
84022;BME280;74108;48.636;9.492;2024-03-22T08:48:57;98185.84;;;18.71;48.34
84022;BME280;74108;48.636;9.492;2024-03-22T08:51:22;98182.03;;;19.09;47.99
84022;BME280;74108;48.636;9.492;2024-03-22T08:53:48;98178.31;;;19.24;46.98
84022;BME280;74108;48.636;9.492;2024-03-22T08:56:13;98173.66;;;19.48;46.87
84022;BME280;74108;48.636;9.492;2024-03-22T08:58:38;98176.41;;;20.24;45.62
84022;BME280;74108;48.636;9.492;2024-03-22T09:01:05;98171.31;;;20.50;45.38
84022;BME280;74108;48.636;9.492;2024-03-22T09:03:31;98165.56;;;20.57;44.80
84022;BME280;74108;48.636;9.492;2024-03-22T09:05:56;98159.19;;;20.44;44.26
84022;BME280;74108;48.636;9.492;2024-03-22T09:08:22;98154.19;;;20.65;43.71
84022;BME280;74108;48.636;9.492;2024-03-22T09:10:47;98149.16;;;20.85;43.93
84022;BME280;74108;48.636;9.492;2024-03-22T09:13:13;98146.75;;;20.53;45.57
84022;BME280;74108;48.636;9.492;2024-03-22T09:15:39;98143.84;;;20.27;45.16
84022;BME280;74108;48.636;9.492;2024-03-22T09:18:04;98138.75;;;20.04;45.76
84022;BME280;74108;48.636;9.492;2024-03-22T09:20:30;98142.00;;;20.14;45.92
84022;BME280;74108;48.636;9.492;2024-03-22T09:22:55;98132.03;;;20.78;43.81
84022;BME280;74108;48.636;9.492;2024-03-22T09:25:23;98134.31;;;20.49;43.95
84022;BME280;74108;48.636;9.492;2024-03-22T09:27:49;98127.91;;;20.72;42.17
84022;BME280;74108;48.636;9.492;2024-03-22T09:30:15;98126.13;;;20.89;42.44
84022;BME280;74108;48.636;9.492;2024-03-22T09:32:41;98135.91;;;20.72;42.58
84022;BME280;74108;48.636;9.492;2024-03-22T09:35:08;98132.59;;;20.17;42.54
84022;BME280;74108;48.636;9.492;2024-03-22T09:37:33;98131.94;;;20.47;43.12
84022;BME280;74108;48.636;9.492;2024-03-22T09:39:58;98126.09;;;20.81;42.00
84022;BME280;74108;48.636;9.492;2024-03-22T09:42:25;98119.22;;;20.88;40.82
84022;BME280;74108;48.636;9.492;2024-03-22T09:44:51;98117.38;;;21.20;41.05
84022;BME280;74108;48.636;9.492;2024-03-22T09:47:17;98113.13;;;21.19;39.70
84022;BME280;74108;48.636;9.492;2024-03-22T09:49:43;98106.81;;;21.45;40.22
84022;BME280;74108;48.636;9.492;2024-03-22T09:52:14;98099.66;;;21.63;40.97
84022;BME280;74108;48.636;9.492;2024-03-22T09:54:41;98094.56;;;21.44;41.19
84022;BME280;74108;48.636;9.492;2024-03-22T09:57:12;98092.91;;;21.83;40.26
84022;BME280;74108;48.636;9.492;2024-03-22T09:59:38;98092.34;;;21.94;40.46
84022;BME280;74108;48.636;9.492;2024-03-22T10:02:04;98088.91;;;22.02;39.10
84022;BME280;74108;48.636;9.492;2024-03-22T10:04:33;98083.25;;;21.95;40.33
84022;BME280;74108;48.636;9.492;2024-03-22T10:07:02;98075.22;;;22.38;38.93
84022;BME280;74108;48.636;9.492;2024-03-22T10:09:28;98070.19;;;22.71;37.09
84022;BME280;74108;48.636;9.492;2024-03-22T10:11:55;98067.00;;;22.86;37.44
84022;BME280;74108;48.636;9.492;2024-03-22T10:14:21;98062.13;;;22.88;36.29
84022;BME280;74108;48.636;9.492;2024-03-22T10:16:46;98053.69;;;22.69;36.32
84022;BME280;74108;48.636;9.492;2024-03-22T10:19:11;98044.25;;;22.54;37.30
84022;BME280;74108;48.636;9.492;2024-03-22T10:21:37;98053.94;;;22.84;36.68
84022;BME280;74108;48.636;9.492;2024-03-22T10:24:02;98039.78;;;22.84;36.34
84022;BME280;74108;48.636;9.492;2024-03-22T10:26:29;98040.47;;;22.64;35.27
84022;BME280;74108;48.636;9.492;2024-03-22T10:28:54;98036.84;;;22.68;35.32
84022;BME280;74108;48.636;9.492;2024-03-22T10:31:19;98033.31;;;21.96;35.42
84022;BME280;74108;48.636;9.492;2024-03-22T10:33:46;98032.97;;;22.40;37.53
84022;BME280;74108;48.636;9.492;2024-03-22T10:36:12;98024.31;;;22.34;35.49
84022;BME280;74108;48.636;9.492;2024-03-22T10:38:38;98026.06;;;22.30;34.29
84022;BME280;74108;48.636;9.492;2024-03-22T10:41:04;98023.81;;;22.50;35.01
84022;BME280;74108;48.636;9.492;2024-03-22T10:43:30;98017.09;;;22.44;35.13
84022;BME280;74108;48.636;9.492;2024-03-22T10:46:01;98016.16;;;22.22;34.84
84022;BME280;74108;48.636;9.492;2024-03-22T10:48:30;98015.66;;;22.46;36.02
84022;BME280;74108;48.636;9.492;2024-03-22T10:51:00;98000.63;;;22.16;35.91
84022;BME280;74108;48.636;9.492;2024-03-22T10:53:26;97998.59;;;22.13;34.07
84022;BME280;74108;48.636;9.492;2024-03-22T10:55:54;97990.09;;;22.28;33.23
84022;BME280;74108;48.636;9.492;2024-03-22T10:58:21;97984.47;;;22.12;35.41
84022;BME280;74108;48.636;9.492;2024-03-22T11:00:47;97982.38;;;22.35;33.67
84022;BME280;74108;48.636;9.492;2024-03-22T11:03:19;97984.59;;;22.79;34.73
84022;BME280;74108;48.636;9.492;2024-03-22T11:05:50;97984.66;;;23.38;32.58
84022;BME280;74108;48.636;9.492;2024-03-22T11:08:26;97978.66;;;24.03;31.06
84022;BME280;74108;48.636;9.492;2024-03-22T11:10:52;97978.22;;;23.39;32.02
84022;BME280;74108;48.636;9.492;2024-03-22T11:13:18;97971.53;;;24.07;31.09
84022;BME280;74108;48.636;9.492;2024-03-22T11:15:43;97959.53;;;24.70;28.57
84022;BME280;74108;48.636;9.492;2024-03-22T11:18:09;97957.25;;;24.48;30.75
84022;BME280;74108;48.636;9.492;2024-03-22T11:20:38;97949.66;;;24.62;31.83
84022;BME280;74108;48.636;9.492;2024-03-22T11:23:06;97945.47;;;24.97;30.07
84022;BME280;74108;48.636;9.492;2024-03-22T11:25:32;97953.16;;;23.64;32.19
84022;BME280;74108;48.636;9.492;2024-03-22T11:27:58;97949.09;;;23.58;32.37
84022;BME280;74108;48.636;9.492;2024-03-22T11:30:29;97939.53;;;23.48;31.48
84022;BME280;74108;48.636;9.492;2024-03-22T11:35:21;97942.78;;;24.16;33.21
84022;BME280;74108;48.636;9.492;2024-03-22T11:37:47;97933.50;;;24.70;30.22
84022;BME280;74108;48.636;9.492;2024-03-22T11:40:14;97930.81;;;25.06;31.00
84022;BME280;74108;48.636;9.492;2024-03-22T11:42:41;97923.34;;;24.76;30.83
84022;BME280;74108;48.636;9.492;2024-03-22T11:45:08;97914.75;;;26.29;27.90
84022;BME280;74108;48.636;9.492;2024-03-22T11:47:35;97906.09;;;26.52;26.79
84022;BME280;74108;48.636;9.492;2024-03-22T11:50:02;97914.31;;;26.00;27.59
84022;BME280;74108;48.636;9.492;2024-03-22T11:52:29;97914.13;;;26.20;26.58
84022;BME280;74108;48.636;9.492;2024-03-22T11:54:54;97915.06;;;24.93;29.38
84022;BME280;74108;48.636;9.492;2024-03-22T11:57:21;97905.88;;;25.06;29.39
84022;BME280;74108;48.636;9.492;2024-03-22T11:59:46;97893.84;;;24.76;30.25
84022;BME280;74108;48.636;9.492;2024-03-22T12:02:12;97896.19;;;24.08;31.71
84022;BME280;74108;48.636;9.492;2024-03-22T12:04:47;97885.88;;;24.91;28.36
84022;BME280;74108;48.636;9.492;2024-03-22T12:07:13;97889.25;;;25.40;27.74
84022;BME280;74108;48.636;9.492;2024-03-22T12:09:41;97880.25;;;26.31;26.24
84022;BME280;74108;48.636;9.492;2024-03-22T12:12:10;97877.09;;;26.76;26.87
84022;BME280;74108;48.636;9.492;2024-03-22T12:14:36;97875.44;;;26.72;26.97
84022;BME280;74108;48.636;9.492;2024-03-22T12:17:02;97866.56;;;25.93;28.35
84022;BME280;74108;48.636;9.492;2024-03-22T12:19:28;97859.03;;;25.83;29.45
84022;BME280;74108;48.636;9.492;2024-03-22T12:21:54;97861.19;;;26.87;25.83
84022;BME280;74108;48.636;9.492;2024-03-22T12:24:21;97855.31;;;26.66;25.19
84022;BME280;74108;48.636;9.492;2024-03-22T12:26:47;97847.16;;;26.00;26.55
84022;BME280;74108;48.636;9.492;2024-03-22T12:29:13;97841.13;;;25.59;27.08
84022;BME280;74108;48.636;9.492;2024-03-22T12:31:38;97845.25;;;25.17;29.23
84022;BME280;74108;48.636;9.492;2024-03-22T12:34:03;97833.28;;;25.98;29.97
84022;BME280;74108;48.636;9.492;2024-03-22T12:36:29;97840.31;;;24.31;32.37
84022;BME280;74108;48.636;9.492;2024-03-22T12:38:54;97834.94;;;24.07;31.93
84022;BME280;74108;48.636;9.492;2024-03-22T12:41:20;97823.69;;;23.81;31.81
84022;BME280;74108;48.636;9.492;2024-03-22T12:43:45;97823.56;;;23.44;33.25
84022;BME280;74108;48.636;9.492;2024-03-22T12:46:10;97824.16;;;23.50;33.09
84022;BME280;74108;48.636;9.492;2024-03-22T12:48:36;97812.63;;;23.37;34.03
84022;BME280;74108;48.636;9.492;2024-03-22T12:51:01;97818.63;;;22.93;33.21
84022;BME280;74108;48.636;9.492;2024-03-22T12:53:27;97805.28;;;23.26;31.11
84022;BME280;74108;48.636;9.492;2024-03-22T12:55:52;97795.56;;;23.42;30.73
84022;BME280;74108;48.636;9.492;2024-03-22T12:58:18;97788.22;;;23.39;31.33
84022;BME280;74108;48.636;9.492;2024-03-22T13:00:43;97785.34;;;23.02;33.21